FW3234 Weather Reports


Display with metric or nautical units.
time (UTC)temp
F
wind
direction
speed
MPH
gust
MPH
rain 1hr
in
rain 24hr
in
rain mn
in
humidity
%
barometer
mb
20200330013110 48 124 0.0 2.0 0.00 0.02 0.02 63 1009.9
20200330011710 48 245 0.0 0.0 0.00 0.02 0.02 64 1009.7
20200330010110 48 223 0.0 0.0 0.00 0.02 0.02 64 1009.7
20200330004602 50 244 0.0 0.0 0.00 0.02 0.02 60 1009.7
20200330003056 48 300 0.0 0.0 0.00 0.02 0.02 65 1009.8
20200330001558 46 297 0.0 6.0 0.00 0.02 0.02 67 1009.9
20200330000123 47 253 3.0 15.0 0.00 0.02 0.02 62 1010.2
20200329234625 55 287 2.0 5.0 0.00 0.02 0.02 48 1009.5
20200329233124 54 313 5.0 20.0 0.00 0.02 0.02 51 1009.4
20200329231538 53 179 2.0 9.0 0.00 0.02 0.02 52 1009.5
20200329230029 55 212 2.0 14.0 0.00 0.02 0.02 49 1009.5
20200329224533 53 231 1.0 5.0 0.00 0.02 0.02 50 1009.6
20200329223033 53 77 1.0 6.0 0.00 0.02 0.02 51 1009.5
20200329221524 53 201 1.0 6.0 0.00 0.02 0.02 52 1009.7
20200329220024 54 188 0.0 9.0 0.00 0.02 0.02 52 1009.7
20200329214506 53 137 2.0 8.0 0.00 0.02 0.02 57 1009.9
20200329213324 53 252 0.0 6.0 0.00 0.02 0.02 59 1010.1
20200329211658 52 147 0.0 5.0 0.00 0.02 0.02 60 1010.3
20200329210111 51 262 2.0 13.0 0.00 0.02 0.02 66 1010.5
20200329204644 52 265 3.0 11.0 0.00 0.02 0.02 68 1010.6
20200329203228 52 243 1.0 8.0 0.00 0.02 0.02 65 1010.6
20200329201619 51 199 2.0 13.0 0.00 0.02 0.02 69 1010.7
20200329200115 49 162 2.0 9.0 0.00 0.02 0.02 71 1010.8
20200329194638 48 262 2.0 9.0 0.02 0.02 0.02 73 1010.7
20200329193100 48 246 1.0 18.0 0.02 0.02 0.02 77 1010.9
20200329191719 46 223 0.0 7.0 0.02 0.02 0.02 84 1011.0
20200329190148 45 264 1.0 7.0 0.02 0.02 0.02 83 1011.3
20200329184622 48 265 1.0 7.0 0.00 0.00 0.00 79 1011.1
20200329183025 48 257 3.0 12.0 0.00 0.00 0.00 78 1011.0
20200329181526 46 170 0.0 10.0 0.00 0.00 0.00 82 1011.2
20200329180107 45 217 7.0 17.0 0.00 0.00 0.00 83 1011.5
20200329174546 45 158 5.0 18.0 0.00 0.00 0.00 83 1011.4
20200329173036 46 183 3.0 14.0 0.00 0.00 0.00 83 1011.4
20200329171513 46 220 6.0 13.0 0.00 0.00 0.00 83 1011.5
20200329170015 46 139 5.0 12.0 0.00 0.00 0.00 82 1011.4
20200329164538 45 174 6.0 13.0 0.00 0.00 0.00 82 1011.5
20200329163004 45 188 4.0 11.0 0.00 0.00 0.00 84 1011.3
20200329161739 44 152 5.0 14.0 0.00 0.00 0.00 85 1011.5
20200329160110 43 177 6.0 11.0 0.00 0.00 0.00 86 1011.5
20200329154650 43 185 4.0 10.0 0.00 0.00 0.00 87 1011.5
20200329153213 42 214 4.0 11.0 0.00 0.00 0.00 87 1011.7
20200329151705 42 182 6.0 10.0 0.00 0.00 0.00 87 1011.9
20200329150145 42 191 3.0 9.0 0.00 0.00 0.00 88 1011.8
20200329144557 41 177 4.0 10.0 0.00 0.00 0.00 88 1011.9
20200329143136 41 194 3.0 8.0 0.00 0.00 0.00 87 1011.8
20200329141602 41 187 3.0 9.0 0.00 0.00 0.00 87 1011.8
20200329140122 41 177 1.0 8.0 0.00 0.00 0.00 86 1011.8
20200329134630 41 212 2.0 8.0 0.00 0.00 0.00 86 1011.7
20200329133039 41 158 3.0 10.0 0.00 0.00 0.00 86 1011.7
20200329131628 41 205 1.0 8.0 0.00 0.00 0.00 87 1011.7
20200329124533 41 179 3.0 11.0 0.00 0.00 0.00 88 1011.7
20200329123048 41 198 2.0 9.0 0.00 0.00 0.00 88 1011.7
20200329121540 40 221 1.0 7.0 0.00 0.00 0.00 88 1011.9
20200329120100 40 173 2.0 8.0 0.00 0.00 0.00 88 1012.0
20200329114528 40 179 4.0 9.0 0.00 0.00 0.00 88 1011.8
20200329113018 40 195 2.0 7.0 0.00 0.00 0.00 88 1011.8
20200329111515 41 150 2.0 9.0 0.00 0.00 0.00 88 1012.2
20200329110028 41 146 5.0 10.0 0.00 0.00 0.00 88 1012.2
20200329104511 41 117 2.0 6.0 0.00 0.00 0.00 88 1012.3
20200329103001 41 222 4.0 8.0 0.00 0.00 0.00 88 1012.4
20200329101705 41 185 2.0 9.0 0.00 0.00 0.00 88 1012.5
20200329100229 41 178 4.0 7.0 0.00 0.00 0.00 88 1012.6
20200329094555 41 171 2.0 7.0 0.00 0.00 0.00 88 1012.6
20200329093238 41 179 1.0 10.0 0.00 0.00 0.00 88 1012.6
20200329091715 41 190 3.0 8.0 0.00 0.00 0.00 87 1012.7
20200329090238 42 200 6.0 12.0 0.00 0.00 0.00 87 1012.7
20200329084541 42 152 5.0 9.0 0.00 0.00 0.00 87 1012.9
20200329083038 42 193 4.0 9.0 0.00 0.00 0.00 87 1012.9
20200329081550 42 203 2.0 10.0 0.00 0.00 0.00 86 1013.0
20200329080104 43 186 5.0 11.0 0.00 0.00 0.00 86 1013.3
20200329074603 43 169 2.0 8.0 0.00 0.00 0.00 86 1013.3
20200329073021 43 192 4.0 9.0 0.00 0.00 0.00 86 1013.3
20200329071526 43 167 3.0 12.0 0.00 0.00 0.00 86 1013.3
20200329070028 43 147 3.0 9.0 0.00 0.00 0.00 85 1013.6
20200329064510 43 184 5.0 12.0 0.00 0.00 0.00 85 1013.6
20200329063011 43 183 4.0 10.0 0.00 0.00 0.00 84 1013.6
20200329061509 44 196 5.0 10.0 0.00 0.00 0.00 83 1013.6
20200329060015 44 184 4.0 13.0 0.00 0.00 0.00 82 1013.6
20200329054514 44 175 5.0 9.0 0.00 0.00 0.00 81 1013.6
20200329053002 45 190 6.0 11.0 0.00 0.00 0.00 80 1013.7
20200329051746 45 207 6.0 10.0 0.00 0.00 0.00 79 1013.6
20200329050233 45 176 4.0 9.0 0.00 0.00 0.00 78 1013.7
20200329044628 45 207 2.0 7.0 0.00 0.00 0.00 77 1013.7
20200329043122 45 197 3.0 8.0 0.00 0.00 0.00 76 1013.7
20200329041704 46 204 2.0 9.0 0.00 0.00 0.00 75 1013.7
20200329040223 45 176 4.0 9.0 0.00 0.00 0.00 75 1013.7
20200329034622 45 199 3.0 6.0 0.00 0.00 0.00 75 1013.7
20200329033122 44 199 1.0 4.0 0.00 0.00 0.00 74 1013.7
20200329031737 44 190 0.0 3.0 0.00 0.00 0.00 73 1013.6
20200329030142 45 190 1.0 4.0 0.00 0.00 0.00 72 1013.5
20200329024608 46 179 1.0 6.0 0.00 0.00 0.00 71 1013.6
20200329023041 46 203 2.0 4.0 0.00 0.00 0.00 70 1013.7
20200329021535 47 141 0.0 4.0 0.00 0.00 0.00 68 1013.8
20200329020035 48 168 0.0 2.0 0.00 0.00 0.00 66 1014.0
20200329014529 48 195 0.0 6.0 0.00 0.00 0.00 65 1014.1